Time;durP1;ratioP1;P1;durP2;ratioP2;P2;SDS_P1;SDS_P2;PMS_P1;PMS_P2;Temp;Humidity;BMP_temperature;BMP_pressure;BME280_temperature;BME280_humidity;BME280_pressure;Samples;Min_cycle;Max_cycle;Signal;HPM_P1;HPM_P2
2021/05/26 00:00:32;;;;;;;14.00;8.57;;;14.40;75.30;;;;;;5051289;28;20120;-72
2021/05/26 00:02:57;;;;;;;18.42;8.13;;;14.40;75.40;;;;;;5057444;28;20025;-73
2021/05/26 00:05:23;;;;;;;13.05;8.50;;;14.40;75.40;;;;;;5043671;28;20032;-72
2021/05/26 00:07:49;;;;;;;11.68;7.45;;;14.40;75.30;;;;;;5063605;28;20505;-72
2021/05/26 00:10:16;;;;;;;14.18;7.97;;;14.40;75.30;;;;;;5056519;28;20111;-72
2021/05/26 00:12:43;;;;;;;14.00;7.65;;;14.50;75.20;;;;;;5058529;28;20487;-72
2021/05/26 00:15:09;;;;;;;9.88;7.03;;;14.50;75.10;;;;;;5050192;28;20471;-72
2021/05/26 00:17:35;;;;;;;11.40;7.13;;;14.50;74.70;;;;;;5064479;28;20095;-72
2021/05/26 00:20:00;;;;;;;12.10;7.40;;;14.50;74.40;;;;;;5059258;28;20389;-72
2021/05/26 00:22:27;;;;;;;9.68;6.28;;;14.50;74.30;;;;;;5049717;28;20033;-72
2021/05/26 00:24:52;;;;;;;10.30;5.55;;;14.50;74.10;;;;;;5048936;28;20045;-71
2021/05/26 00:27:18;;;;;;;9.65;5.57;;;14.50;74.00;;;;;;5050177;28;20049;-71
2021/05/26 00:29:45;;;;;;;9.77;4.90;;;14.50;73.70;;;;;;5050108;28;20067;-71
2021/05/26 00:32:11;;;;;;;10.57;5.53;;;14.60;74.10;;;;;;5069098;28;20041;-73
2021/05/26 00:34:36;;;;;;;10.07;4.97;;;14.60;73.30;;;;;;5067378;28;20032;-73
2021/05/26 00:37:04;;;;;;;9.32;4.45;;;14.60;73.20;;;;;;5055379;28;20235;-73
2021/05/26 00:39:29;;;;;;;11.43;4.88;;;14.60;72.90;;;;;;5069592;28;20040;-73
2021/05/26 00:41:55;;;;;;;9.07;3.70;;;14.60;72.70;;;;;;5050545;28;20037;-73
2021/05/26 00:44:21;;;;;;;5.88;3.35;;;14.60;72.30;;;;;;5049587;28;20064;-73
2021/05/26 00:46:47;;;;;;;7.15;2.95;;;14.50;71.70;;;;;;5057869;28;20107;-72
2021/05/26 00:49:13;;;;;;;7.80;3.10;;;14.50;71.50;;;;;;5058726;28;20037;-70
2021/05/26 00:51:39;;;;;;;5.05;2.60;;;14.50;71.20;;;;;;5050676;28;20044;-70
2021/05/26 00:54:05;;;;;;;7.68;2.00;;;14.40;70.60;;;;;;5061685;28;20033;-71
2021/05/26 00:56:33;;;;;;;5.78;1.95;;;14.40;70.50;;;;;;5049893;28;20033;-70
2021/05/26 00:59:04;;;;;;;4.18;1.70;;;14.40;70.20;;;;;;5053310;28;20029;-70
2021/05/26 01:01:30;;;;;;;4.85;1.90;;;14.30;70.20;;;;;;5063914;28;20498;-70
2021/05/26 01:03:56;;;;;;;6.35;2.33;;;14.30;70.40;;;;;;5052979;28;20025;-73
2021/05/26 01:06:22;;;;;;;4.53;1.83;;;14.20;70.60;;;;;;5055858;28;20110;-73
2021/05/26 01:08:48;;;;;;;3.88;2.15;;;14.20;70.80;;;;;;5054797;28;20067;-73
2021/05/26 01:11:13;;;;;;;5.60;2.47;;;14.20;71.00;;;;;;5052136;28;20048;-73
2021/05/26 01:13:39;;;;;;;4.40;1.90;;;14.20;71.30;;;;;;5057643;28;20045;-73
2021/05/26 01:16:05;;;;;;;5.72;2.13;;;14.30;71.60;;;;;;5056367;28;20048;-73
2021/05/26 01:18:33;;;;;;;5.50;2.63;;;14.20;71.70;;;;;;5054286;28;20040;-70
2021/05/26 01:21:03;;;;;;;4.60;1.90;;;14.20;71.80;;;;;;5055068;28;20028;-71
2021/05/26 01:23:29;;;;;;;4.63;1.95;;;14.20;71.90;;;;;;5051524;28;20135;-70
2021/05/26 01:25:57;;;;;;;5.20;2.30;;;14.20;72.00;;;;;;5052084;28;20163;-71
2021/05/26 01:28:24;;;;;;;5.75;1.90;;;14.20;72.20;;;;;;5053385;28;20036;-71
2021/05/26 01:30:51;;;;;;;4.57;1.98;;;14.10;72.20;;;;;;5053264;28;20047;-70
2021/05/26 01:33:18;;;;;;;4.88;2.47;;;14.20;72.40;;;;;;5052456;28;20067;-71
2021/05/26 01:35:45;;;;;;;5.55;2.20;;;14.20;72.50;;;;;;5047780;28;20033;-71
2021/05/26 01:38:19;;;;;;;5.55;2.15;;;14.10;72.70;;;;;;5065021;28;20048;-70
2021/05/26 01:40:45;;;;;;;5.15;2.20;;;14.00;73.00;;;;;;5054474;28;20437;-71
2021/05/26 01:43:12;;;;;;;5.28;2.45;;;14.00;73.50;;;;;;5056779;28;20033;-70
2021/05/26 01:45:38;;;;;;;6.40;3.20;;;14.00;73.90;;;;;;5061693;28;20039;-71
2021/05/26 01:48:04;;;;;;;5.93;2.75;;;14.00;74.10;;;;;;5067691;28;20097;-71
2021/05/26 01:50:30;;;;;;;5.53;2.53;;;14.00;74.50;;;;;;5059715;28;20522;-71
2021/05/26 01:53:02;;;;;;;6.60;2.72;;;13.90;74.80;;;;;;5058886;28;20120;-71
2021/05/26 01:55:27;;;;;;;4.57;2.00;;;13.80;75.10;;;;;;5067373;28;20033;-71
2021/05/26 01:57:53;;;;;;;4.97;2.13;;;13.80;75.40;;;;;;5058321;28;20054;-71
2021/05/26 02:00:20;;;;;;;5.70;2.28;;;13.80;75.50;;;;;;5061720;28;20422;-71
2021/05/26 02:02:47;;;;;;;4.93;1.92;;;13.80;75.80;;;;;;5059389;28;20174;-74
2021/05/26 02:05:14;;;;;;;3.78;2.10;;;13.80;75.80;;;;;;5053860;28;20455;-74
2021/05/26 02:07:39;;;;;;;4.75;2.03;;;13.90;75.90;;;;;;5061438;28;20063;-74
2021/05/26 02:10:08;;;;;;;4.72;2.53;;;13.90;75.90;;;;;;5052622;28;20474;-73
2021/05/26 02:12:36;;;;;;;4.80;2.47;;;13.90;75.90;;;;;;5052631;28;20095;-74
2021/05/26 02:15:05;;;;;;;4.55;1.80;;;14.00;75.80;;;;;;5050876;28;20036;-74
2021/05/26 02:17:31;;;;;;;3.58;1.70;;;14.00;75.70;;;;;;5068937;28;20036;-74
2021/05/26 02:19:56;;;;;;;4.85;2.40;;;14.00;75.70;;;;;;5062915;28;20089;-73
2021/05/26 02:22:22;;;;;;;3.33;2.00;;;14.10;75.70;;;;;;5055552;28;20116;-73
2021/05/26 02:24:49;;;;;;;5.28;1.90;;;14.10;75.80;;;;;;5052220;28;20083;-71
2021/05/26 02:27:15;;;;;;;4.75;1.73;;;14.10;75.80;;;;;;5056677;28;20029;-71
2021/05/26 02:29:40;;;;;;;4.97;2.22;;;14.10;75.70;;;;;;5052555;28;20112;-71
2021/05/26 02:32:08;;;;;;;5.03;2.20;;;14.00;75.70;;;;;;5064643;28;20399;-74
2021/05/26 02:34:33;;;;;;;3.75;2.00;;;14.10;75.70;;;;;;5051712;28;20432;-73
2021/05/26 02:36:59;;;;;;;4.32;2.45;;;14.10;75.60;;;;;;5059860;28;20112;-73
2021/05/26 02:39:25;;;;;;;5.30;2.83;;;14.10;75.70;;;;;;5052671;28;20383;-74
2021/05/26 02:41:51;;;;;;;5.53;2.80;;;14.10;76.00;;;;;;5060380;28;20029;-72
2021/05/26 02:44:17;;;;;;;6.82;3.35;;;14.00;75.90;;;;;;5054045;28;20029;-73
2021/05/26 02:46:44;;;;;;;4.97;2.60;;;14.00;76.70;;;;;;5051266;28;20029;-71
2021/05/26 02:49:10;;;;;;;9.75;3.70;;;14.10;76.30;;;;;;5050604;28;20033;-72
2021/05/26 02:51:36;;;;;;;7.53;3.35;;;14.00;76.40;;;;;;5054898;28;20037;-72
2021/05/26 02:54:03;;;;;;;6.72;3.22;;;14.10;76.60;;;;;;5070918;28;20051;-72
2021/05/26 02:56:28;;;;;;;7.35;3.55;;;14.10;76.60;;;;;;5057055;28;20028;-72
2021/05/26 02:58:55;;;;;;;7.15;3.42;;;14.10;76.60;;;;;;5056206;28;20051;-72
2021/05/26 03:01:21;;;;;;;5.90;3.13;;;14.10;76.80;;;;;;5051641;28;20044;-72
2021/05/26 03:03:47;;;;;;;6.07;3.38;;;14.10;76.90;;;;;;5052884;28;20427;-72
2021/05/26 03:06:13;;;;;;;6.78;3.30;;;14.10;77.10;;;;;;5059842;28;20323;-73
2021/05/26 03:08:38;;;;;;;7.78;3.45;;;14.10;77.10;;;;;;5048000;28;20029;-73
2021/05/26 03:11:05;;;;;;;9.55;4.97;;;14.20;77.20;;;;;;5054995;28;20452;-72
2021/05/26 03:13:31;;;;;;;6.03;3.97;;;14.20;77.30;;;;;;5058004;28;20077;-71
2021/05/26 03:15:57;;;;;;;10.68;4.32;;;14.10;77.30;;;;;;5059380;28;20041;-72
2021/05/26 03:18:23;;;;;;;6.35;4.10;;;14.10;77.50;;;;;;5061020;28;20115;-72
2021/05/26 03:20:49;;;;;;;7.35;4.28;;;14.10;77.60;;;;;;5052924;28;20495;-71
2021/05/26 03:23:17;;;;;;;6.63;4.30;;;14.00;77.60;;;;;;5056356;28;20443;-72
2021/05/26 03:25:45;;;;;;;6.47;4.28;;;14.00;77.60;;;;;;5065740;28;20052;-72
2021/05/26 03:28:11;;;;;;;8.98;4.63;;;14.00;77.50;;;;;;5050934;28;20033;-72
2021/05/26 03:30:37;;;;;;;7.72;4.43;;;14.00;77.40;;;;;;5063025;28;20111;-72
2021/05/26 03:33:04;;;;;;;10.88;5.60;;;14.00;77.30;;;;;;5067692;28;20115;-72
2021/05/26 03:35:32;;;;;;;7.72;4.50;;;14.00;77.30;;;;;;5057040;28;20051;-72
2021/05/26 03:37:58;;;;;;;15.25;5.95;;;14.00;77.10;;;;;;5042180;28;20094;-72
2021/05/26 03:40:23;;;;;;;9.55;6.03;;;14.10;77.20;;;;;;5058023;28;20037;-72
2021/05/26 03:42:49;;;;;;;13.40;7.80;;;14.10;77.20;;;;;;5060651;28;20036;-72
2021/05/26 03:45:15;;;;;;;13.15;7.53;;;14.10;77.20;;;;;;5057213;28;20090;-72
2021/05/26 03:47:41;;;;;;;15.52;9.23;;;14.10;77.30;;;;;;5060667;28;20041;-72
2021/05/26 03:50:12;;;;;;;13.68;8.23;;;14.10;77.40;;;;;;5062070;28;20055;-72
2021/05/26 03:52:43;;;;;;;15.23;10.90;;;14.10;77.40;;;;;;5059001;28;20071;-72
2021/05/26 03:55:10;;;;;;;17.67;10.50;;;14.20;77.60;;;;;;5048422;28;20025;-72
2021/05/26 03:57:37;;;;;;;13.93;9.25;;;14.20;77.60;;;;;;5050546;28;20475;-71
2021/05/26 04:00:06;;;;;;;19.02;10.13;;;14.20;77.60;;;;;;5049269;28;20055;-72
2021/05/26 04:02:31;;;;;;;12.98;8.32;;;14.20;77.50;;;;;;5060838;28;20571;-72
2021/05/26 04:04:57;;;;;;;16.40;11.13;;;14.20;78.10;;;;;;5049922;28;20103;-72
2021/05/26 04:07:23;;;;;;;16.98;10.48;;;14.30;77.50;;;;;;5061129;28;20056;-72
2021/05/26 04:09:48;;;;;;;15.63;10.13;;;14.30;77.50;;;;;;5054487;28;20059;-72
2021/05/26 04:12:14;;;;;;;20.33;10.98;;;14.30;77.40;;;;;;5049621;28;20055;-72
2021/05/26 04:14:40;;;;;;;15.52;10.02;;;14.30;77.50;;;;;;5049136;28;20033;-72
2021/05/26 04:17:05;;;;;;;17.95;9.45;;;14.30;77.50;;;;;;5063677;28;20033;-72
2021/05/26 04:19:31;;;;;;;19.42;9.65;;;14.30;77.60;;;;;;5059846;28;20032;-72
2021/05/26 04:21:57;;;;;;;16.88;9.52;;;14.30;77.60;;;;;;5053072;28;20052;-72
2021/05/26 04:24:22;;;;;;;18.85;10.90;;;14.30;77.70;;;;;;5058654;28;20154;-72
2021/05/26 04:26:48;;;;;;;15.30;9.57;;;14.30;77.60;;;;;;5059464;28;20650;-72
2021/05/26 04:29:14;;;;;;;17.00;10.52;;;14.30;77.60;;;;;;5058882;28;20120;-71
2021/05/26 04:31:40;;;;;;;17.33;9.93;;;14.30;77.70;;;;;;5047438;28;20448;-72
2021/05/26 04:34:06;;;;;;;18.33;9.88;;;14.30;77.80;;;;;;5056307;28;20037;-71
2021/05/26 04:36:31;;;;;;;22.52;11.75;;;14.40;77.90;;;;;;5061246;28;20107;-73
2021/05/26 04:38:57;;;;;;;19.55;10.38;;;14.30;77.90;;;;;;5049822;28;20029;-71
2021/05/26 04:41:22;;;;;;;19.90;11.02;;;14.30;77.90;;;;;;5049472;28;20041;-71
2021/05/26 04:43:48;;;;;;;14.38;9.05;;;14.30;78.10;;;;;;5049071;28;20037;-72
2021/05/26 04:46:14;;;;;;;20.13;10.35;;;14.30;78.00;;;;;;5059117;28;20029;-73
2021/05/26 04:48:39;;;;;;;16.02;9.05;;;14.40;78.00;;;;;;5066907;28;20029;-73
2021/05/26 04:51:05;;;;;;;18.17;9.07;;;14.40;77.80;;;;;;5063683;28;20048;-72
2021/05/26 04:53:30;;;;;;;14.70;8.02;;;14.50;77.80;;;;;;5052591;28;20029;-73
2021/05/26 04:55:56;;;;;;;15.95;7.15;;;14.50;77.50;;;;;;5063663;28;20040;-72
2021/05/26 04:58:22;;;;;;;14.57;7.13;;;14.40;77.10;;;;;;5061914;28;20099;-72
2021/05/26 05:00:47;;;;;;;13.60;6.32;;;14.50;77.10;;;;;;5067147;28;20060;-72
2021/05/26 05:03:13;;;;;;;11.93;6.15;;;14.50;76.90;;;;;;5058187;28;20028;-73
2021/05/26 05:05:38;;;;;;;11.90;5.95;;;14.40;76.90;;;;;;5058153;28;20481;-72
2021/05/26 05:08:06;;;;;;;13.13;6.50;;;14.50;76.90;;;;;;5062564;28;20044;-74
2021/05/26 05:10:33;;;;;;;15.38;7.30;;;14.40;76.90;;;;;;5069142;28;20033;-73
2021/05/26 05:12:59;;;;;;;21.80;6.32;;;14.50;77.00;;;;;;5068886;28;20033;-73
2021/05/26 05:15:24;;;;;;;10.40;5.43;;;14.50;76.80;;;;;;5060959;28;20466;-74
2021/05/26 05:17:50;;;;;;;11.23;6.28;;;14.50;76.60;;;;;;5063371;28;20410;-73
2021/05/26 05:20:20;;;;;;;11.35;5.63;;;14.50;76.70;;;;;;5065299;28;20400;-73
2021/05/26 05:22:50;;;;;;;14.10;5.55;;;14.50;76.80;;;;;;5053031;28;20540;-72
2021/05/26 05:25:16;;;;;;;12.60;6.47;;;14.60;76.80;;;;;;5054983;28;20072;-72
2021/05/26 05:27:42;;;;;;;13.88;6.22;;;14.60;76.80;;;;;;5073516;28;20056;-72
2021/05/26 05:30:08;;;;;;;10.38;5.78;;;14.60;76.50;;;;;;5046839;28;20111;-72
2021/05/26 05:32:34;;;;;;;11.38;5.47;;;14.60;76.40;;;;;;5052481;28;20036;-72
2021/05/26 05:35:00;;;;;;;16.73;7.03;;;14.60;76.30;;;;;;5052799;28;20029;-72
2021/05/26 05:37:26;;;;;;;10.15;5.78;;;14.60;76.20;;;;;;5052016;28;20055;-72
2021/05/26 05:39:52;;;;;;;13.27;5.97;;;14.60;76.30;;;;;;5053262;28;20087;-72
2021/05/26 05:42:19;;;;;;;13.15;6.10;;;14.70;76.40;;;;;;5052650;28;20067;-73
2021/05/26 05:44:46;;;;;;;11.32;5.75;;;14.80;76.30;;;;;;5050302;28;20033;-72
2021/05/26 05:47:11;;;;;;;11.30;5.93;;;14.80;76.20;;;;;;5068625;28;20543;-73
2021/05/26 05:49:37;;;;;;;15.13;5.68;;;14.90;76.10;;;;;;5061639;28;20107;-73
2021/05/26 05:52:03;;;;;;;14.30;6.70;;;14.90;76.00;;;;;;5068222;28;20390;-73
2021/05/26 05:54:29;;;;;;;10.10;5.20;;;14.90;75.80;;;;;;5057697;28;20349;-73
2021/05/26 05:56:55;;;;;;;14.02;6.20;;;14.90;75.60;;;;;;5058890;28;20032;-73
2021/05/26 05:59:20;;;;;;;12.25;6.00;;;14.80;76.10;;;;;;5049754;28;20091;-73
2021/05/26 06:01:46;;;;;;;19.85;7.03;;;14.90;75.30;;;;;;5051386;28;20055;-72
2021/05/26 06:04:12;;;;;;;12.95;5.60;;;14.80;75.30;;;;;;5050366;28;20029;-73
2021/05/26 06:06:37;;;;;;;11.07;5.82;;;14.80;75.50;;;;;;5069524;28;20041;-73
2021/05/26 06:09:04;;;;;;;10.57;5.70;;;14.80;75.70;;;;;;5057934;28;20072;-72
2021/05/26 06:11:32;;;;;;;12.88;6.03;;;14.90;75.40;;;;;;5058779;28;20107;-71
2021/05/26 06:14:00;;;;;;;11.88;6.72;;;14.80;75.50;;;;;;5068295;28;20025;-73
2021/05/26 06:16:26;;;;;;;12.93;6.55;;;14.80;75.60;;;;;;5059573;28;20033;-72
2021/05/26 06:18:52;;;;;;;14.38;6.40;;;14.70;75.80;;;;;;5051223;28;20036;-72
2021/05/26 06:21:18;;;;;;;14.32;6.65;;;14.70;75.70;;;;;;5055129;28;20028;-72
2021/05/26 06:23:44;;;;;;;12.38;6.95;;;14.70;75.50;;;;;;5069972;28;20432;-72
2021/05/26 06:26:09;;;;;;;14.43;6.60;;;14.70;75.50;;;;;;5059615;28;20151;-72
2021/05/26 06:28:35;;;;;;;11.65;6.68;;;14.80;75.70;;;;;;5051857;28;20025;-72
2021/05/26 06:31:01;;;;;;;12.55;7.78;;;14.80;75.60;;;;;;5052087;28;20029;-72
2021/05/26 06:33:26;;;;;;;11.95;6.15;;;14.80;75.60;;;;;;5051576;28;20467;-72
2021/05/26 06:35:52;;;;;;;20.10;6.28;;;14.80;75.60;;;;;;5051888;28;20434;-72
2021/05/26 06:38:18;;;;;;;12.20;6.85;;;14.80;76.30;;;;;;5036456;28;20025;-72
2021/05/26 06:40:44;;;;;;;17.00;7.45;;;14.90;75.60;;;;;;5060560;28;20036;-72
2021/05/26 06:43:10;;;;;;;14.40;7.35;;;15.00;75.20;;;;;;5061946;28;20029;-72
2021/05/26 06:45:35;;;;;;;15.13;7.80;;;15.00;74.80;;;;;;5052533;28;20093;-72
2021/05/26 06:48:01;;;;;;;11.70;6.65;;;15.00;75.20;;;;;;5052976;28;20039;-72
2021/05/26 06:50:27;;;;;;;13.38;6.85;;;14.90;75.20;;;;;;5062724;28;20036;-71
2021/05/26 06:52:52;;;;;;;10.20;7.00;;;14.90;75.10;;;;;;5064730;28;20040;-72
2021/05/26 06:55:18;;;;;;;12.68;7.13;;;14.90;75.20;;;;;;5067812;28;20025;-72
2021/05/26 06:57:44;;;;;;;14.25;7.32;;;15.00;75.30;;;;;;5059069;28;20021;-71
2021/05/26 07:00:10;;;;;;;13.00;7.28;;;15.00;75.20;;;;;;5058868;28;20112;-72
2021/05/26 07:02:36;;;;;;;13.43;7.47;;;15.10;75.00;;;;;;5050276;28;20069;-71
2021/05/26 07:05:02;;;;;;;12.65;8.07;;;15.30;74.80;;;;;;5058356;28;20029;-71
2021/05/26 07:07:28;;;;;;;12.30;7.43;;;15.50;74.50;;;;;;5050634;28;20451;-73
2021/05/26 07:09:54;;;;;;;14.65;7.18;;;15.70;74.10;;;;;;5050596;28;20024;-71
2021/05/26 07:12:19;;;;;;;12.15;6.93;;;16.00;73.90;;;;;;5054137;28;20045;-71
2021/05/26 07:14:46;;;;;;;13.63;8.50;;;16.40;72.80;;;;;;5058011;28;20390;-71
2021/05/26 07:17:12;;;;;;;12.60;7.15;;;16.50;71.10;;;;;;5058083;28;20031;-72
2021/05/26 07:19:38;;;;;;;10.32;7.13;;;16.60;71.10;;;;;;5068785;28;20024;-73
2021/05/26 07:22:03;;;;;;;12.00;7.28;;;16.60;71.00;;;;;;5053832;28;20107;-72
2021/05/26 07:24:29;;;;;;;13.50;7.97;;;16.60;70.90;;;;;;5055389;28;20052;-73
2021/05/26 07:26:55;;;;;;;15.75;7.57;;;16.60;70.20;;;;;;5055593;28;20377;-72
2021/05/26 07:29:21;;;;;;;12.30;7.35;;;16.60;70.20;;;;;;5057281;28;20029;-71
2021/05/26 07:31:46;;;;;;;13.13;7.30;;;16.60;70.10;;;;;;5050867;28;20144;-72
2021/05/26 07:34:12;;;;;;;12.20;7.82;;;16.60;70.10;;;;;;5050702;28;20476;-72
2021/05/26 07:36:38;;;;;;;12.52;8.20;;;16.60;70.20;;;;;;5050700;28;20047;-71
2021/05/26 07:39:04;;;;;;;12.07;7.05;;;16.60;70.80;;;;;;5051953;28;20055;-72
2021/05/26 07:41:30;;;;;;;10.77;7.40;;;16.50;70.30;;;;;;5058575;28;20047;-72
2021/05/26 07:43:56;;;;;;;15.32;7.15;;;16.60;70.50;;;;;;5048811;28;20029;-72
2021/05/26 07:46:21;;;;;;;14.50;8.18;;;16.60;70.40;;;;;;5045886;28;20356;-72
2021/05/26 07:48:51;;;;;;;12.20;7.03;;;16.70;70.30;;;;;;5049296;28;20340;-72
2021/05/26 07:51:18;;;;;;;12.88;7.70;;;16.90;69.80;;;;;;5067306;28;20069;-72
2021/05/26 07:53:44;;;;;;;12.75;7.50;;;16.90;69.50;;;;;;5050893;28;20033;-72
2021/05/26 07:56:10;;;;;;;12.75;8.32;;;17.00;69.30;;;;;;5059369;28;20036;-72
2021/05/26 07:58:35;;;;;;;10.00;7.82;;;17.10;69.10;;;;;;5055445;28;20035;-72
2021/05/26 08:01:01;;;;;;;12.15;8.48;;;17.40;68.50;;;;;;5048201;28;20043;-72
2021/05/26 08:03:27;;;;;;;13.48;7.72;;;17.50;67.70;;;;;;5048767;28;20124;-72
2021/05/26 08:05:53;;;;;;;13.85;8.18;;;17.70;67.90;;;;;;5049716;28;20112;-72
2021/05/26 08:08:19;;;;;;;12.77;7.80;;;17.70;67.60;;;;;;5050612;28;20489;-72
2021/05/26 08:10:44;;;;;;;14.68;7.57;;;17.80;67.60;;;;;;5066191;28;20028;-72
2021/05/26 08:13:10;;;;;;;16.05;8.20;;;17.80;67.50;;;;;;5064751;28;20052;-72
2021/05/26 08:15:37;;;;;;;11.07;7.35;;;17.90;67.00;;;;;;5057838;28;20025;-72
2021/05/26 08:18:03;;;;;;;11.10;7.57;;;17.90;67.00;;;;;;5069945;28;20033;-71
2021/05/26 08:20:28;;;;;;;10.32;7.78;;;17.90;66.30;;;;;;5068363;28;20087;-71
2021/05/26 08:22:54;;;;;;;11.75;7.45;;;18.00;66.10;;;;;;5069971;28;20056;-72
2021/05/26 08:25:20;;;;;;;11.45;7.70;;;18.00;66.10;;;;;;5049299;28;20061;-71
2021/05/26 08:27:45;;;;;;;12.55;7.38;;;18.00;65.60;;;;;;5048651;28;20429;-72
2021/05/26 08:30:11;;;;;;;14.00;7.70;;;18.00;65.90;;;;;;5050537;28;20086;-72
2021/05/26 08:32:37;;;;;;;11.20;7.75;;;18.00;65.30;;;;;;5055054;28;20069;-72
2021/05/26 08:35:03;;;;;;;12.35;8.00;;;17.90;64.60;;;;;;5049845;28;20083;-71
2021/05/26 08:37:29;;;;;;;14.55;8.32;;;17.90;64.50;;;;;;5066334;28;20032;-72
2021/05/26 08:39:55;;;;;;;12.50;7.85;;;17.80;64.80;;;;;;5065922;28;20677;-72
2021/05/26 08:42:20;;;;;;;11.13;7.40;;;17.70;65.20;;;;;;5049855;28;20037;-71
2021/05/26 08:44:46;;;;;;;11.10;7.63;;;17.60;65.80;;;;;;5062085;28;20501;-72
2021/05/26 08:47:26;;;;;;;13.38;7.57;;;17.70;66.00;;;;;;5048958;28;20032;-72
2021/05/26 08:49:55;;;;;;;11.63;8.00;;;17.60;65.30;;;;;;5064343;28;20130;-73
2021/05/26 08:52:24;;;;;;;10.27;7.07;;;17.80;65.10;;;;;;5059658;28;20058;-72
2021/05/26 08:54:50;;;;;;;12.00;8.05;;;17.90;64.90;;;;;;5051394;28;20475;-72
2021/05/26 08:57:16;;;;;;;11.68;7.47;;;18.10;63.90;;;;;;5050240;28;20044;-71
2021/05/26 08:59:42;;;;;;;11.65;7.50;;;18.10;63.50;;;;;;5049864;28;20362;-72
2021/05/26 09:02:12;;;;;;;9.80;7.78;;;18.20;63.60;;;;;;5049716;28;20025;-72
2021/05/26 09:04:38;;;;;;;10.85;7.75;;;18.40;63.40;;;;;;5060262;28;20033;-72
2021/05/26 09:07:24;;;;;;;12.00;7.85;;;18.80;63.70;;;;;;5066938;28;20442;-72
2021/05/26 09:09:55;;;;;;;14.48;8.05;;;19.40;63.20;;;;;;5055505;28;20373;-72
2021/05/26 09:12:27;;;;;;;11.90;7.53;;;20.00;61.20;;;;;;5061115;28;20029;-72
2021/05/26 09:14:55;;;;;;;11.45;7.53;;;20.50;59.60;;;;;;5049134;28;20360;-72
2021/05/26 09:17:20;;;;;;;10.48;7.00;;;20.90;57.90;;;;;;5049882;28;20128;-72
2021/05/26 09:19:46;;;;;;;11.07;7.93;;;21.20;57.30;;;;;;5042865;28;20043;-72
2021/05/26 09:22:14;;;;;;;9.18;6.75;;;21.30;56.10;;;;;;5057812;28;20045;-72
2021/05/26 09:24:40;;;;;;;11.80;6.65;;;21.30;56.10;;;;;;5048483;28;20411;-72
2021/05/26 09:27:11;;;;;;;14.05;6.50;;;21.50;55.70;;;;;;5064070;28;20032;-73
2021/05/26 09:29:40;;;;;;;9.55;6.40;;;21.60;54.80;;;;;;5047928;28;20032;-72
2021/05/26 09:32:31;;;;;;;10.80;7.03;;;21.70;53.40;;;;;;5049690;28;20234;-72
2021/05/26 09:35:00;;;;;;;11.80;6.50;;;21.70;53.30;;;;;;5053410;28;20029;-72
2021/05/26 09:37:35;;;;;;;10.48;6.88;;;21.90;53.80;;;;;;5051381;28;20028;-72
2021/05/26 09:40:06;;;;;;;9.63;6.25;;;22.20;52.90;;;;;;5053032;28;20033;-72
2021/05/26 09:42:36;;;;;;;10.30;6.57;;;22.20;51.50;;;;;;5051498;28;20082;-71
2021/05/26 09:45:16;;;;;;;10.63;6.72;;;21.90;52.40;;;;;;5059451;28;20029;-71
2021/05/26 09:47:50;;;;;;;9.35;6.38;;;21.30;53.10;;;;;;5064602;28;20025;-72
2021/05/26 09:50:22;;;;;;;10.48;7.10;;;20.90;53.70;;;;;;5060696;28;20035;-71
2021/05/26 09:53:12;;;;;;;7.75;6.07;;;20.90;54.60;;;;;;5069284;28;20028;-71
2021/05/26 09:55:39;;;;;;;10.30;5.97;;;21.20;53.90;;;;;;5055694;28;20328;-71
2021/05/26 09:58:07;;;;;;;8.55;6.35;;;21.40;53.70;;;;;;5052748;28;20025;-71
2021/05/26 10:00:33;;;;;;;10.95;6.30;;;21.50;53.90;;;;;;5053825;28;20021;-71
2021/05/26 10:02:59;;;;;;;8.55;5.50;;;21.80;53.10;;;;;;5069261;28;20474;-71
2021/05/26 10:05:25;;;;;;;10.27;5.55;;;21.80;52.00;;;;;;5064510;28;20056;-71
2021/05/26 10:07:53;;;;;;;10.35;5.72;;;21.40;51.90;;;;;;5064628;28;20103;-71
2021/05/26 10:10:21;;;;;;;9.57;5.68;;;21.20;52.10;;;;;;5058073;28;20455;-71
2021/05/26 10:12:52;;;;;;;9.80;6.15;;;21.00;52.40;;;;;;5069816;28;20109;-71
2021/05/26 10:15:19;;;;;;;11.23;5.82;;;20.80;52.90;;;;;;5057566;28;20031;-71
2021/05/26 10:17:51;;;;;;;9.45;5.15;;;21.00;53.50;;;;;;5059619;28;20028;-71
2021/05/26 10:20:23;;;;;;;8.50;5.43;;;21.30;53.90;;;;;;5063779;28;20118;-71
2021/05/26 10:22:51;;;;;;;;;;;21.60;52.40;;;;;;5055481;28;20454;-71
2021/05/26 10:25:18;;;;;;;6.10;3.60;;;21.80;51.60;;;;;;5051501;28;19927;-71
2021/05/26 10:27:51;;;;;;;3.80;2.10;;;22.00;51.00;;;;;;5050449;28;20020;-71
2021/05/26 10:30:19;;;;;;;2.67;1.45;;;21.80;49.00;;;;;;5050179;28;20021;-71
2021/05/26 10:33:02;;;;;;;3.55;1.90;;;21.30;49.50;;;;;;5052180;28;20051;-71
2021/05/26 10:35:49;;;;;;;3.97;2.15;;;20.60;50.00;;;;;;5068485;28;20041;-70
2021/05/26 10:38:15;;;;;;;6.18;2.28;;;19.90;51.80;;;;;;5053504;28;20039;-72
2021/05/26 10:40:43;;;;;;;3.20;1.85;;;19.10;56.00;;;;;;5067427;28;20024;-71
2021/05/26 10:43:21;;;;;;;5.68;2.40;;;18.50;58.40;;;;;;5070291;28;20036;-71
2021/05/26 10:45:55;;;;;;;5.05;2.50;;;17.90;60.40;;;;;;5065030;28;20039;-71
2021/05/26 10:48:38;;;;;;;3.03;1.80;;;17.50;61.80;;;;;;5052346;28;20033;-71
2021/05/26 10:51:05;;;;;;;5.60;1.90;;;17.10;63.10;;;;;;5051733;28;20549;-71
2021/05/26 10:53:41;;;;;;;5.97;1.98;;;16.70;63.40;;;;;;5051492;28;20044;-71
2021/05/26 10:56:27;;;;;;;4.60;1.95;;;16.40;64.80;;;;;;5071975;28;20036;-71
2021/05/26 10:59:12;;;;;;;2.67;1.67;;;16.30;66.10;;;;;;5058997;28;20040;-71
2021/05/26 11:02:03;;;;;;;4.60;2.28;;;16.20;66.20;;;;;;5050215;28;20028;-71
2021/05/26 11:04:29;;;;;;;4.38;2.42;;;16.30;66.90;;;;;;5050836;28;20120;-71
2021/05/26 11:07:23;;;;;;;5.82;2.75;;;16.40;66.70;;;;;;5047039;28;20033;-71
2021/05/26 11:10:05;;;;;;;4.25;2.10;;;16.20;67.00;;;;;;5050872;28;20525;-72
2021/05/26 11:12:55;;;;;;;4.65;2.58;;;16.10;67.20;;;;;;5062616;28;20120;-72
2021/05/26 11:15:41;;;;;;;4.45;1.88;;;16.00;67.80;;;;;;5056251;28;20041;-72
2021/05/26 11:18:28;;;;;;;4.90;2.17;;;16.00;67.20;;;;;;5063752;28;20142;-72
2021/05/26 11:20:54;;;;;;;3.42;1.70;;;16.10;67.10;;;;;;5040896;28;20426;-72
2021/05/26 11:23:19;;;;;;;4.72;1.92;;;16.20;67.60;;;;;;5053601;28;20044;-72
2021/05/26 11:25:56;;;;;;;3.42;1.80;;;16.40;68.40;;;;;;5050503;28;20052;-73
2021/05/26 11:28:29;;;;;;;4.60;2.20;;;16.80;68.60;;;;;;5067570;28;20033;-73
2021/05/26 11:31:06;;;;;;;4.03;2.10;;;17.30;68.50;;;;;;5055614;28;20074;-72
2021/05/26 11:33:32;;;;;;;4.50;2.22;;;17.80;67.10;;;;;;5050486;28;20360;-73
2021/05/26 11:36:05;;;;;;;6.00;2.75;;;18.20;66.90;;;;;;5046332;28;20033;-70
2021/05/26 11:38:32;;;;;;;4.25;1.90;;;18.70;66.50;;;;;;5050854;28;20025;-72
2021/05/26 11:41:00;;;;;;;4.35;2.13;;;18.80;64.90;;;;;;5052284;28;20544;-70
2021/05/26 11:43:30;;;;;;;5.68;2.20;;;18.70;64.70;;;;;;5051643;28;20033;-70
2021/05/26 11:46:06;;;;;;;5.90;2.63;;;18.40;65.10;;;;;;5053727;28;20033;-71
2021/05/26 11:48:32;;;;;;;3.70;1.98;;;18.30;65.10;;;;;;5058050;28;20028;-72
2021/05/26 11:50:58;;;;;;;4.30;2.28;;;18.30;65.70;;;;;;5050608;28;20420;-71
2021/05/26 11:53:23;;;;;;;4.13;2.40;;;18.30;66.10;;;;;;5065116;28;20438;-72
2021/05/26 11:55:52;;;;;;;7.72;3.00;;;18.30;66.60;;;;;;5058560;28;20119;-71
2021/05/26 11:58:37;;;;;;;5.03;2.58;;;18.20;66.60;;;;;;5068921;28;20032;-73
2021/05/26 12:01:09;;;;;;;6.38;3.03;;;18.10;66.30;;;;;;5067614;28;20119;-72
2021/05/26 12:03:35;;;;;;;6.10;2.58;;;18.00;66.50;;;;;;5050843;28;20079;-73
2021/05/26 12:06:01;;;;;;;5.30;2.80;;;17.80;66.60;;;;;;5051037;28;20044;-72
2021/05/26 12:08:33;;;;;;;8.05;3.25;;;17.70;67.30;;;;;;5059084;28;20116;-72
2021/05/26 12:11:00;;;;;;;4.40;2.90;;;17.60;67.30;;;;;;5056766;28;20451;-72
2021/05/26 12:13:45;;;;;;;7.55;3.60;;;17.50;67.50;;;;;;5060797;28;20573;-72
2021/05/26 12:16:13;;;;;;;7.72;3.17;;;17.40;67.80;;;;;;5054640;28;20436;-72
2021/05/26 12:18:47;;;;;;;6.63;3.08;;;17.50;68.10;;;;;;5069082;28;20037;-73
2021/05/26 12:21:15;;;;;;;6.32;3.60;;;17.50;68.20;;;;;;5069598;28;20095;-73
2021/05/26 12:23:45;;;;;;;8.00;3.60;;;17.50;68.90;;;;;;5064626;28;20033;-71
2021/05/26 12:26:36;;;;;;;6.03;3.10;;;17.70;70.00;;;;;;5065843;28;20051;-72
2021/05/26 12:29:09;;;;;;;6.47;3.22;;;18.10;71.00;;;;;;5060493;28;20037;-71
2021/05/26 12:31:37;;;;;;;5.65;3.10;;;18.60;70.10;;;;;;5056040;28;20032;-71
2021/05/26 12:34:11;;;;;;;7.45;3.00;;;19.00;69.20;;;;;;5068655;28;20073;-71
2021/05/26 12:36:47;;;;;;;7.40;2.60;;;19.20;67.10;;;;;;5051629;28;20024;-72
2021/05/26 12:39:13;;;;;;;5.20;2.38;;;19.20;65.00;;;;;;5055893;28;20025;-73
2021/05/26 12:41:39;;;;;;;5.32;2.90;;;19.40;64.60;;;;;;5052812;28;20033;-71
2021/05/26 12:44:08;;;;;;;4.72;2.50;;;19.40;63.90;;;;;;5052361;28;20449;-72